createdAt,value
2019-05-10T00:00:27.724Z,99.90
2019-05-10T00:03:15.512Z,99.90
2019-05-10T00:06:02.945Z,99.90
2019-05-10T00:08:46.408Z,99.90
2019-05-10T00:11:40.494Z,99.90
2019-05-10T00:14:16.447Z,99.90
2019-05-10T00:16:46.654Z,99.90
2019-05-10T00:19:16.279Z,99.90
2019-05-10T00:21:45.791Z,99.90
2019-05-10T00:24:15.566Z,99.90
2019-05-10T00:26:45.249Z,99.90
2019-05-10T00:29:14.729Z,99.90
2019-05-10T00:31:44.170Z,99.90
2019-05-10T00:34:13.619Z,99.90
2019-05-10T00:36:43.065Z,99.90
2019-05-10T00:39:12.555Z,99.90
2019-05-10T00:41:42.073Z,99.90
2019-05-10T00:44:12.194Z,99.90
2019-05-10T00:46:41.690Z,99.90
2019-05-10T00:49:11.185Z,99.90
2019-05-10T00:51:40.612Z,99.90
2019-05-10T00:54:10.224Z,99.90
2019-05-10T00:56:39.916Z,99.90
2019-05-10T00:59:09.345Z,99.90
2019-05-10T01:01:38.830Z,99.90
2019-05-10T01:04:08.283Z,99.90
2019-05-10T01:06:37.732Z,99.90
2019-05-10T01:09:07.659Z,99.90
2019-05-10T01:11:37.095Z,99.90
2019-05-10T01:14:06.549Z,99.90
2019-05-10T01:16:35.997Z,99.90
2019-05-10T01:19:05.515Z,99.90
2019-05-10T01:21:35.031Z,99.90
2019-05-10T01:24:04.744Z,99.90
2019-05-10T01:26:34.189Z,99.90
2019-05-10T01:29:03.630Z,99.90
2019-05-10T01:31:33.593Z,99.90
2019-05-10T01:34:03.015Z,99.90
2019-05-10T01:36:32.465Z,99.90
2019-05-10T01:39:02.018Z,99.90
2019-05-10T01:41:31.572Z,99.90
2019-05-10T01:44:01.017Z,99.90
2019-05-10T01:46:30.505Z,99.90
2019-05-10T01:48:59.941Z,99.90
2019-05-10T01:51:29.372Z,99.90
2019-05-10T01:53:58.839Z,99.90
2019-05-10T01:56:28.261Z,99.90
2019-05-10T01:58:57.923Z,99.90
2019-05-10T02:01:27.407Z,99.90
2019-05-10T02:03:56.830Z,99.90
2019-05-10T02:06:26.454Z,99.90
2019-05-10T02:08:55.938Z,99.90
2019-05-10T02:11:25.522Z,99.90
2019-05-10T02:13:54.973Z,99.90
2019-05-10T02:16:24.434Z,99.90
2019-05-10T02:18:53.865Z,99.90
2019-05-10T02:21:23.327Z,99.90
2019-05-10T02:23:52.822Z,99.90
2019-05-10T02:26:22.272Z,99.90
2019-05-10T02:28:51.735Z,99.90
2019-05-10T02:31:22.074Z,99.90
2019-05-10T02:33:51.620Z,99.90
2019-05-10T02:36:21.095Z,99.90
2019-05-10T02:38:50.561Z,99.90
2019-05-10T02:41:20.042Z,99.90
2019-05-10T02:43:49.484Z,99.90
2019-05-10T02:46:19.028Z,99.90
2019-05-10T02:48:48.473Z,99.90
2019-05-10T02:51:17.900Z,99.90
2019-05-10T02:53:47.358Z,99.90
2019-05-10T02:56:29.657Z,99.90
2019-05-10T02:58:50.003Z,99.90
2019-05-10T03:01:23.144Z,99.90
2019-05-10T03:03:54.398Z,99.90
2019-05-10T03:06:28.352Z,99.90
2019-05-10T03:08:57.806Z,99.90
2019-05-10T03:11:31.864Z,99.90
2019-05-10T03:14:05.939Z,99.90
2019-05-10T03:16:39.436Z,99.90
2019-05-10T03:19:12.716Z,99.90
2019-05-10T03:21:44.066Z,99.90
2019-05-10T03:24:13.773Z,99.90
2019-05-10T03:26:51.118Z,99.90
2019-05-10T03:29:17.569Z,99.90
2019-05-10T03:31:47.038Z,99.90
2019-05-10T03:34:16.469Z,99.90
2019-05-10T03:36:45.903Z,99.90
2019-05-10T03:39:15.418Z,99.90
2019-05-10T03:41:44.874Z,99.90
2019-05-10T03:44:14.320Z,99.90
2019-05-10T03:46:43.768Z,99.90
2019-05-10T03:49:13.254Z,99.90
2019-05-10T03:51:42.688Z,99.90
2019-05-10T03:54:12.105Z,99.90
2019-05-10T03:56:41.552Z,99.90
2019-05-10T03:59:11.001Z,99.90
2019-05-10T04:01:40.449Z,99.90
2019-05-10T04:04:10.157Z,99.90
2019-05-10T04:06:39.594Z,99.90
2019-05-10T04:09:09.092Z,99.90
2019-05-10T04:11:38.549Z,99.90
2019-05-10T04:14:07.985Z,99.90
2019-05-10T04:16:37.388Z,99.90
2019-05-10T04:19:06.858Z,99.90
2019-05-10T04:21:36.308Z,99.90
2019-05-10T04:24:05.759Z,99.90
2019-05-10T04:26:35.225Z,99.90
2019-05-10T04:29:04.669Z,99.90
2019-05-10T04:31:34.119Z,99.90
2019-05-10T04:34:03.581Z,99.90
2019-05-10T04:36:32.987Z,99.90
2019-05-10T04:39:02.540Z,99.90
2019-05-10T04:41:31.981Z,99.90
2019-05-10T04:44:01.421Z,99.90
2019-05-10T04:46:30.863Z,99.90
2019-05-10T04:49:00.356Z,99.90
2019-05-10T04:51:29.799Z,99.90
2019-05-10T04:53:59.222Z,99.90
2019-05-10T04:56:28.666Z,99.90
2019-05-10T04:58:58.119Z,99.90
2019-05-10T05:01:27.561Z,99.90
2019-05-10T05:03:57.025Z,99.90
2019-05-10T05:06:26.471Z,99.90
2019-05-10T05:08:55.912Z,99.90
2019-05-10T05:11:25.365Z,99.90
2019-05-10T05:13:54.803Z,99.90
2019-05-10T05:16:24.254Z,99.90
2019-05-10T05:18:53.751Z,99.90
2019-05-10T05:21:23.305Z,99.90
2019-05-10T05:23:52.727Z,99.90
2019-05-10T05:26:22.201Z,99.90
2019-05-10T05:28:51.650Z,99.90
2019-05-10T05:31:21.114Z,99.90
2019-05-10T05:33:50.620Z,99.90
2019-05-10T05:36:20.048Z,99.90
2019-05-10T05:38:49.687Z,99.90
2019-05-10T05:41:19.233Z,99.90
2019-05-10T05:43:48.667Z,99.90
2019-05-10T05:46:18.115Z,99.90
2019-05-10T05:48:51.174Z,99.90
2019-05-10T05:51:18.739Z,99.90
2019-05-10T05:53:48.205Z,99.90
2019-05-10T05:56:17.697Z,99.90
2019-05-10T05:58:47.257Z,99.90
2019-05-10T06:01:25.917Z,99.90
2019-05-10T06:03:47.874Z,99.90
2019-05-10T06:06:21.578Z,99.90
2019-05-10T06:08:48.488Z,99.90
2019-05-10T06:11:17.946Z,99.90
2019-05-10T06:13:49.721Z,99.90
2019-05-10T06:16:22.107Z,99.90
2019-05-10T06:18:50.347Z,99.90
2019-05-10T06:21:24.537Z,99.90
2019-05-10T06:23:50.956Z,99.90
2019-05-10T06:26:26.687Z,99.90
2019-05-10T06:29:03.733Z,99.90
2019-05-10T06:31:22.817Z,99.90
2019-05-10T06:33:52.341Z,99.90
2019-05-10T06:36:21.783Z,99.90
2019-05-10T06:38:51.234Z,99.90
2019-05-10T06:41:20.723Z,99.90
2019-05-10T06:43:51.333Z,99.90
2019-05-10T06:46:23.662Z,99.90
2019-05-10T06:48:52.529Z,99.90
2019-05-10T06:51:22.451Z,99.90
2019-05-10T06:53:55.638Z,99.90
2019-05-10T06:56:25.086Z,99.90
2019-05-10T06:58:54.993Z,99.90
2019-05-10T07:01:24.571Z,99.90
2019-05-10T07:03:54.018Z,99.90
2019-05-10T07:06:23.476Z,99.90
2019-05-10T07:08:57.798Z,99.90
2019-05-10T07:11:24.147Z,99.90
2019-05-10T07:13:53.864Z,99.90
2019-05-10T07:16:25.526Z,99.90
2019-05-10T07:18:59.883Z,99.90
2019-05-10T07:21:25.662Z,99.90
2019-05-10T07:23:55.119Z,99.90
2019-05-10T07:26:26.817Z,99.90
2019-05-10T07:28:59.254Z,99.90
2019-05-10T07:31:27.769Z,99.90
2019-05-10T07:33:57.470Z,99.90
2019-05-10T07:36:30.506Z,99.90
2019-05-10T07:39:02.862Z,99.90
2019-05-10T07:41:29.522Z,99.90
2019-05-10T07:44:07.172Z,99.90
2019-05-10T07:46:34.467Z,99.90
2019-05-10T07:49:04.130Z,99.90
2019-05-10T07:51:33.590Z,99.90
2019-05-10T07:54:06.451Z,99.90
2019-05-10T07:56:38.812Z,99.90
2019-05-10T07:59:05.454Z,99.90
2019-05-10T08:01:35.087Z,99.90
2019-05-10T08:04:04.506Z,99.90
2019-05-10T08:06:43.546Z,99.90
2019-05-10T08:09:09.720Z,99.90
2019-05-10T08:11:41.158Z,99.90
2019-05-10T08:14:11.385Z,99.90
2019-05-10T08:16:41.058Z,99.90
2019-05-10T08:19:10.480Z,99.90
2019-05-10T08:21:41.808Z,99.90
2019-05-10T08:24:16.170Z,99.90
2019-05-10T08:26:42.612Z,99.90
2019-05-10T08:29:14.463Z,99.90
2019-05-10T08:31:50.561Z,99.90
2019-05-10T08:34:14.750Z,99.90
2019-05-10T08:36:47.620Z,99.90
2019-05-10T08:39:15.450Z,99.90
2019-05-10T08:41:45.834Z,99.90
2019-05-10T08:44:19.736Z,99.90
2019-05-10T08:46:49.415Z,99.90
2019-05-10T08:49:22.083Z,99.90
2019-05-10T08:51:52.110Z,99.90
2019-05-10T08:54:22.106Z,99.90
2019-05-10T08:57:00.820Z,99.90
2019-05-10T08:59:26.655Z,99.90
2019-05-10T09:01:55.069Z,99.90
2019-05-10T09:04:24.517Z,99.90
2019-05-10T09:06:59.509Z,99.90
2019-05-10T09:09:25.230Z,99.90
2019-05-10T09:11:57.747Z,99.90
2019-05-10T09:14:25.818Z,99.90
2019-05-10T09:17:00.733Z,99.90
2019-05-10T09:19:35.872Z,99.90
2019-05-10T09:21:57.560Z,99.90
2019-05-10T09:24:27.088Z,99.90
2019-05-10T09:26:57.102Z,99.90
2019-05-10T09:29:27.294Z,99.90
2019-05-10T09:32:01.041Z,99.90
2019-05-10T09:34:29.160Z,99.90
2019-05-10T09:36:58.580Z,99.90
2019-05-10T09:39:28.045Z,99.90
2019-05-10T09:41:57.477Z,99.90
2019-05-10T09:44:26.901Z,99.90
2019-05-10T09:46:56.356Z,99.90
2019-05-10T09:49:25.799Z,99.90
2019-05-10T09:51:55.244Z,99.90
2019-05-10T09:54:29.519Z,99.90
2019-05-10T09:56:57.506Z,99.90
2019-05-10T09:59:27.781Z,99.90
2019-05-10T10:01:57.401Z,99.90
2019-05-10T10:04:28.210Z,99.90
2019-05-10T10:06:58.152Z,99.90
2019-05-10T10:09:33.917Z,99.90
2019-05-10T10:12:02.847Z,99.90
2019-05-10T10:14:37.807Z,99.90
2019-05-10T10:17:03.138Z,99.90
2019-05-10T10:19:32.332Z,99.90
2019-05-10T10:22:05.618Z,99.90
2019-05-10T10:24:32.942Z,99.90
2019-05-10T10:27:02.368Z,99.90
2019-05-10T10:29:34.044Z,99.90
2019-05-10T10:32:02.988Z,99.90
2019-05-10T10:34:37.183Z,99.90
2019-05-10T10:37:03.598Z,99.90
2019-05-10T10:39:33.059Z,99.90
2019-05-10T10:42:07.923Z,99.90
2019-05-10T10:44:33.625Z,99.90
2019-05-10T10:47:03.079Z,99.90
2019-05-10T10:49:32.519Z,99.90
2019-05-10T10:52:05.681Z,99.90
2019-05-10T10:54:36.794Z,99.90
2019-05-10T10:57:04.256Z,99.90
2019-05-10T10:59:33.681Z,99.90
2019-05-10T11:02:28.939Z,99.90
2019-05-10T11:04:40.439Z,99.90
2019-05-10T11:07:10.371Z,99.90
2019-05-10T11:09:37.180Z,99.90
2019-05-10T11:12:06.628Z,99.90
2019-05-10T11:14:39.907Z,99.90
2019-05-10T11:17:07.215Z,99.90
2019-05-10T11:19:36.640Z,99.90
2019-05-10T11:22:09.511Z,99.90
2019-05-10T11:24:37.316Z,99.90
2019-05-10T11:27:07.356Z,99.90
2019-05-10T11:29:37.921Z,99.90
2019-05-10T11:32:15.967Z,99.90
2019-05-10T11:34:38.985Z,99.90
2019-05-10T11:37:08.500Z,99.90
2019-05-10T11:39:45.172Z,99.90
2019-05-10T11:42:11.376Z,99.90
2019-05-10T11:44:41.518Z,99.90
2019-05-10T11:47:22.962Z,99.90
2019-05-10T11:49:42.627Z,99.90
2019-05-10T11:52:13.250Z,99.90
2019-05-10T11:54:42.825Z,99.90
2019-05-10T11:57:13.766Z,99.90
2019-05-10T11:59:43.505Z,99.90
2019-05-10T12:04:44.119Z,99.90
2019-05-10T12:07:13.576Z,99.90
2019-05-10T12:09:43.014Z,99.90
2019-05-10T12:12:12.568Z,99.90
2019-05-10T12:14:46.151Z,99.90
2019-05-10T12:17:14.198Z,99.90
2019-05-10T12:19:48.694Z,99.90
2019-05-10T12:22:16.048Z,99.90
2019-05-10T12:25:04.340Z,99.90
2019-05-10T12:26:18.296Z,99.90
2019-05-10T12:27:25.321Z,99.90
2019-05-10T12:29:55.936Z,99.90
2019-05-10T12:32:21.340Z,99.90
2019-05-10T12:34:52.045Z,99.90
2019-05-10T12:37:21.440Z,99.90
2019-05-10T12:39:53.090Z,99.90
2019-05-10T12:42:22.038Z,99.70
2019-05-10T12:44:52.722Z,99.90
2019-05-10T12:47:22.715Z,99.10
2019-05-10T12:49:53.816Z,98.30
2019-05-10T12:52:28.536Z,98.30
2019-05-10T12:54:54.873Z,98.50
2019-05-10T12:57:24.322Z,98.50
2019-05-10T12:59:53.739Z,98.80
2019-05-10T13:02:23.530Z,98.90
2019-05-10T13:04:54.211Z,99.10
2019-05-10T13:07:23.896Z,99.20
2019-05-10T13:10:02.686Z,99.00
2019-05-10T13:12:24.542Z,99.10
2019-05-10T13:14:53.956Z,99.60
2019-05-10T13:17:23.440Z,99.00
2019-05-10T13:19:58.580Z,99.10
2019-05-10T13:22:24.740Z,99.60
2019-05-10T13:24:54.212Z,99.90
2019-05-10T13:27:23.644Z,99.90
2019-05-10T13:29:53.765Z,99.90
2019-05-10T13:32:23.483Z,99.90
2019-05-10T13:34:52.926Z,99.90
2019-05-10T13:37:24.759Z,99.90
2019-05-10T13:39:58.432Z,99.90
2019-05-10T13:42:24.711Z,99.90
2019-05-10T13:44:54.164Z,99.90
2019-05-10T13:47:23.631Z,99.90
2019-05-10T13:49:53.096Z,99.90
2019-05-10T13:52:22.523Z,99.90
2019-05-10T13:54:52.095Z,99.90
2019-05-10T13:57:21.595Z,99.90
2019-05-10T13:59:55.111Z,99.90
2019-05-10T14:02:30.087Z,99.90
2019-05-10T14:04:53.405Z,99.90
2019-05-10T14:07:22.877Z,99.90
2019-05-10T14:09:52.358Z,99.90
2019-05-10T14:12:25.563Z,97.90
2019-05-10T14:14:55.582Z,96.30
2019-05-10T14:17:24.527Z,96.70
2019-05-10T14:19:54.059Z,96.20
2019-05-10T14:22:23.486Z,95.70
2019-05-10T14:24:58.513Z,97.10
2019-05-10T14:27:24.123Z,97.80
2019-05-10T14:29:53.558Z,98.20
2019-05-10T14:32:22.999Z,98.30
2019-05-10T14:34:52.445Z,99.10
2019-05-10T14:37:21.872Z,98.90
2019-05-10T14:39:51.324Z,98.50
2019-05-10T14:42:24.143Z,98.90
2019-05-10T14:44:52.019Z,99.00
2019-05-10T14:47:21.481Z,99.30
2019-05-10T14:49:50.921Z,99.50
2019-05-10T14:52:22.542Z,99.60
2019-05-10T14:54:55.477Z,99.70
2019-05-10T14:57:22.707Z,99.90
2019-05-10T14:59:52.137Z,98.90
2019-05-10T15:02:22.751Z,98.50
2019-05-10T15:04:52.769Z,98.90
2019-05-10T15:07:22.187Z,98.90
2019-05-10T15:09:54.153Z,98.60
2019-05-10T15:12:22.955Z,98.50
2019-05-10T15:14:52.615Z,98.20
2019-05-10T15:17:22.166Z,98.20
2019-05-10T15:19:57.603Z,98.60
2019-05-10T15:22:24.475Z,97.30
2019-05-10T15:24:53.956Z,97.90
2019-05-10T15:27:24.084Z,97.20
2019-05-10T15:29:58.568Z,96.70
2019-05-10T15:32:24.772Z,97.10
2019-05-10T15:35:06.226Z,97.30
2019-05-10T15:37:25.373Z,96.50
2019-05-10T15:39:54.874Z,96.80
2019-05-10T15:42:24.383Z,96.30
2019-05-10T15:44:54.006Z,96.10
2019-05-10T15:47:23.486Z,96.90
2019-05-10T15:49:54.705Z,96.80
2019-05-10T15:52:24.107Z,97.20
2019-05-10T15:54:53.760Z,96.90
2019-05-10T15:57:23.193Z,96.20
2019-05-10T15:59:56.473Z,96.30
2019-05-10T16:02:23.807Z,96.80
2019-05-10T16:04:53.264Z,96.00
2019-05-10T16:07:22.701Z,96.50
2019-05-10T16:09:54.431Z,96.50
2019-05-10T16:12:23.403Z,97.30
2019-05-10T16:14:52.824Z,96.30
2019-05-10T16:17:23.995Z,94.60
2019-05-10T16:19:59.624Z,97.10
2019-05-10T16:22:25.149Z,97.50
2019-05-10T16:25:00.715Z,97.40
2019-05-10T16:27:27.131Z,97.10
2019-05-10T16:29:56.573Z,96.70
2019-05-10T16:32:29.169Z,96.80
2019-05-10T16:34:57.475Z,96.90
2019-05-10T16:37:26.912Z,96.80
2019-05-10T16:39:56.418Z,96.70
2019-05-10T16:42:27.661Z,97.10
2019-05-10T16:44:57.754Z,96.70
2019-05-10T16:47:27.226Z,96.30
2019-05-10T16:49:56.689Z,96.50
2019-05-10T16:52:27.952Z,96.80
2019-05-10T16:55:03.732Z,97.40
2019-05-10T16:57:32.059Z,96.80
2019-05-10T17:00:02.023Z,97.90
2019-05-10T17:02:30.881Z,99.20
2019-05-10T17:05:00.508Z,99.20
2019-05-10T17:07:29.977Z,99.70
2019-05-10T17:09:59.401Z,98.40
2019-05-10T17:12:29.269Z,98.90
2019-05-10T17:15:02.764Z,99.70
2019-05-10T17:17:31.379Z,99.30
2019-05-10T17:20:01.344Z,99.40
2019-05-10T17:22:30.862Z,99.60
2019-05-10T17:25:03.272Z,99.40
2019-05-10T17:27:31.485Z,99.00
2019-05-10T17:30:00.933Z,99.60
2019-05-10T17:32:30.386Z,98.90
2019-05-10T17:35:04.830Z,99.10
2019-05-10T17:37:35.676Z,99.50
2019-05-10T17:40:10.238Z,98.40
2019-05-10T17:42:41.314Z,98.50
2019-05-10T17:45:10.623Z,98.70
2019-05-10T17:47:40.095Z,98.50
2019-05-10T17:50:10.060Z,98.50
2019-05-10T17:52:39.514Z,98.20
2019-05-10T17:55:15.997Z,98.90
2019-05-10T17:57:40.732Z,97.80
2019-05-10T18:00:12.679Z,97.80
2019-05-10T18:02:42.158Z,97.80
2019-05-10T18:05:11.923Z,98.40
2019-05-10T18:07:41.341Z,97.60
2019-05-10T18:10:11.524Z,97.50
2019-05-10T18:12:40.979Z,98.00
2019-05-10T18:15:11.715Z,97.30
2019-05-10T18:17:41.190Z,96.60
2019-05-10T18:20:11.400Z,97.90
2019-05-10T18:22:45.071Z,98.40
2019-05-10T18:25:19.261Z,98.50
2019-05-10T18:27:43.702Z,98.80
2019-05-10T18:30:13.609Z,98.40
2019-05-10T18:32:43.078Z,99.70
2019-05-10T18:35:15.091Z,98.80
2019-05-10T18:37:43.828Z,99.00
2019-05-10T18:40:13.537Z,99.90
2019-05-10T18:42:42.987Z,98.10
2019-05-10T18:45:12.966Z,97.50
2019-05-10T18:47:42.418Z,97.90
2019-05-10T18:50:13.299Z,98.70
2019-05-10T18:52:43.973Z,99.40
2019-05-10T18:55:13.957Z,99.90
2019-05-10T18:57:45.377Z,99.90
2019-05-10T19:00:17.641Z,99.90
2019-05-10T19:02:49.689Z,99.90
2019-05-10T19:05:17.881Z,99.90
2019-05-10T19:08:01.474Z,99.90
2019-05-10T19:10:20.693Z,99.90
2019-05-10T19:12:59.977Z,99.90
2019-05-10T19:15:23.611Z,99.90
2019-05-10T19:17:53.073Z,99.90
2019-05-10T19:20:22.732Z,99.90
2019-05-10T19:22:52.185Z,99.90
2019-05-10T19:25:45.517Z,99.90
2019-05-10T19:28:12.156Z,99.90
2019-05-10T19:30:41.595Z,99.40
2019-05-10T19:33:11.103Z,99.90
2019-05-10T19:35:40.694Z,99.90
2019-05-10T19:38:10.709Z,99.90
2019-05-10T19:40:40.165Z,99.90
2019-05-10T19:43:15.171Z,99.90
2019-05-10T19:45:41.016Z,99.90
2019-05-10T19:48:10.519Z,99.90
2019-05-10T19:50:39.951Z,99.90
2019-05-10T19:53:09.409Z,99.90
2019-05-10T19:55:38.890Z,99.90
2019-05-10T19:58:08.419Z,99.90
2019-05-10T20:00:38.047Z,99.90
2019-05-10T20:03:07.550Z,99.90
2019-05-10T20:05:37.273Z,99.90
2019-05-10T20:08:06.939Z,99.90
2019-05-10T20:10:36.387Z,99.90
2019-05-10T20:13:05.846Z,99.90
2019-05-10T20:15:35.325Z,99.90
2019-05-10T20:18:05.141Z,99.90
2019-05-10T20:20:34.918Z,99.90
2019-05-10T20:23:04.374Z,99.90
2019-05-10T20:25:33.846Z,99.90
2019-05-10T20:28:06.373Z,99.90
2019-05-10T20:30:34.458Z,99.90
2019-05-10T20:33:03.946Z,99.90
2019-05-10T20:35:33.375Z,99.90
2019-05-10T20:38:02.861Z,99.90
2019-05-10T20:40:32.285Z,99.90
2019-05-10T20:43:01.727Z,99.90
2019-05-10T20:45:31.161Z,99.90
2019-05-10T20:48:00.649Z,99.90
2019-05-10T20:50:30.077Z,99.90
2019-05-10T20:52:59.551Z,99.90
2019-05-10T20:55:29.036Z,99.90
2019-05-10T20:57:58.485Z,99.90
2019-05-10T21:00:27.915Z,99.90
2019-05-10T21:02:57.384Z,99.90
2019-05-10T21:05:26.823Z,99.90
2019-05-10T21:07:56.254Z,99.90
2019-05-10T21:10:25.743Z,99.90
2019-05-10T21:12:55.178Z,99.90
2019-05-10T21:15:24.628Z,99.90
2019-05-10T21:17:54.090Z,99.90
2019-05-10T21:20:23.525Z,99.90
2019-05-10T21:22:52.956Z,99.90
2019-05-10T21:25:22.418Z,99.90
2019-05-10T21:27:51.858Z,99.90
2019-05-10T21:30:21.382Z,99.90
2019-05-10T21:32:50.839Z,99.90
2019-05-10T21:35:20.292Z,99.90
2019-05-10T21:37:49.744Z,99.90
2019-05-10T21:40:19.215Z,99.90
2019-05-10T21:42:48.667Z,99.90
2019-05-10T21:45:18.126Z,99.90
2019-05-10T21:47:51.445Z,99.90
2019-05-10T21:50:18.770Z,99.90
2019-05-10T21:52:48.227Z,99.90
2019-05-10T21:55:17.704Z,99.90
2019-05-10T21:57:47.158Z,99.90
2019-05-10T22:00:17.389Z,99.90
2019-05-10T22:02:46.873Z,99.90
2019-05-10T22:05:16.327Z,99.90
2019-05-10T22:07:45.779Z,99.90
2019-05-10T22:10:15.640Z,99.90
2019-05-10T22:12:45.091Z,99.90
2019-05-10T22:15:14.658Z,99.90
2019-05-10T22:17:44.142Z,99.90
2019-05-10T22:20:13.994Z,99.90
2019-05-10T22:22:43.524Z,99.90
2019-05-10T22:25:12.996Z,99.90
2019-05-10T22:27:42.442Z,99.90
2019-05-10T22:30:12.781Z,99.90
2019-05-10T22:32:42.319Z,99.90
2019-05-10T22:35:11.750Z,99.90
2019-05-10T22:37:41.180Z,99.90
2019-05-10T22:40:10.659Z,99.90
2019-05-10T22:42:40.086Z,99.90
2019-05-10T22:45:09.774Z,99.90
2019-05-10T22:47:39.235Z,99.90
2019-05-10T22:50:10.699Z,99.90
2019-05-10T22:52:40.150Z,99.90
2019-05-10T22:55:10.268Z,99.90
2019-05-10T22:57:39.705Z,99.90
2019-05-10T23:00:10.634Z,99.90
2019-05-10T23:02:40.780Z,99.90
2019-05-10T23:05:10.941Z,99.90
2019-05-10T23:07:40.411Z,99.90
2019-05-10T23:10:10.191Z,99.90
2019-05-10T23:12:39.722Z,99.90
2019-05-10T23:15:10.085Z,99.90
2019-05-10T23:17:39.556Z,99.90
2019-05-10T23:20:09.143Z,99.90
2019-05-10T23:22:38.597Z,99.90
2019-05-10T23:25:08.756Z,99.90
2019-05-10T23:27:38.183Z,99.90
2019-05-10T23:30:07.983Z,99.90
2019-05-10T23:32:37.434Z,99.90
2019-05-10T23:35:07.701Z,99.90
2019-05-10T23:37:37.156Z,99.90
2019-05-10T23:40:07.634Z,99.90
2019-05-10T23:42:37.159Z,99.90
2019-05-10T23:45:10.621Z,99.90
2019-05-10T23:47:40.095Z,99.90
2019-05-10T23:50:10.169Z,99.90
2019-05-10T23:52:39.719Z,99.90
2019-05-10T23:55:09.531Z,99.90
2019-05-10T23:57:39.062Z,99.90
